sensor_id;sensor_type;location;lat;lon;timestamp;pressure;altitude;pressure_sealevel;temperature;humidity
42725;BME280;28369;44.046;23.014;2023-04-24T00:00:20;100843.63;;;21.34;44.07
42725;BME280;28369;44.046;23.014;2023-04-24T00:02:46;100855.19;;;20.48;46.66
42725;BME280;28369;44.046;23.014;2023-04-24T00:05:13;100894.13;;;20.43;47.86
42725;BME280;28369;44.046;23.014;2023-04-24T00:07:40;100742.28;;;19.15;47.97
42725;BME280;28369;44.046;23.014;2023-04-24T00:10:07;100905.34;;;19.87;48.84
42725;BME280;28369;44.046;23.014;2023-04-24T00:12:32;100838.47;;;19.88;47.97
42725;BME280;28369;44.046;23.014;2023-04-24T00:14:59;100900.72;;;20.77;46.72
42725;BME280;28369;44.046;23.014;2023-04-24T00:17:25;100893.13;;;21.23;46.24
42725;BME280;28369;44.046;23.014;2023-04-24T00:19:51;100700.22;;;20.35;45.21
42725;BME280;28369;44.046;23.014;2023-04-24T00:22:17;100795.56;;;21.13;44.98
42725;BME280;28369;44.046;23.014;2023-04-24T00:24:42;100878.28;;;21.71;44.69
42725;BME280;28369;44.046;23.014;2023-04-24T00:27:08;100800.25;;;21.32;43.94
42725;BME280;28369;44.046;23.014;2023-04-24T00:29:34;100826.53;;;21.57;44.17
42725;BME280;28369;44.046;23.014;2023-04-24T00:31:59;100727.28;;;20.75;44.67
42725;BME280;28369;44.046;23.014;2023-04-24T00:34:25;100827.88;;;21.46;44.79
42725;BME280;28369;44.046;23.014;2023-04-24T00:36:50;100802.78;;;21.12;45.04
42725;BME280;28369;44.046;23.014;2023-04-24T00:39:20;100907.91;;;20.98;46.75
42725;BME280;28369;44.046;23.014;2023-04-24T00:41:46;100923.91;;;20.76;47.31
42725;BME280;28369;44.046;23.014;2023-04-24T00:44:13;100865.88;;;19.97;48.69
42725;BME280;28369;44.046;23.014;2023-04-24T00:46:39;100862.25;;;20.19;48.46
42725;BME280;28369;44.046;23.014;2023-04-24T00:49:05;100824.47;;;19.71;49.08
42725;BME280;28369;44.046;23.014;2023-04-24T00:51:31;100880.94;;;20.19;48.67
42725;BME280;28369;44.046;23.014;2023-04-24T00:53:58;100887.34;;;20.77;47.63
42725;BME280;28369;44.046;23.014;2023-04-24T00:56:24;100861.72;;;20.46;47.62
42725;BME280;28369;44.046;23.014;2023-04-24T00:58:49;100847.34;;;20.10;47.66
42725;BME280;28369;44.046;23.014;2023-04-24T01:01:15;100825.94;;;19.74;48.08
42725;BME280;28369;44.046;23.014;2023-04-24T01:03:41;100797.25;;;19.91;47.53
42725;BME280;28369;44.046;23.014;2023-04-24T01:06:07;100812.75;;;20.38;46.78
42725;BME280;28369;44.046;23.014;2023-04-24T01:08:34;100773.81;;;20.44;46.63
42725;BME280;28369;44.046;23.014;2023-04-24T01:11:03;100679.88;;;19.91;46.63
42725;BME280;28369;44.046;23.014;2023-04-24T01:13:29;100735.16;;;20.40;46.31
42725;BME280;28369;44.046;23.014;2023-04-24T01:15:54;100792.25;;;20.82;46.47
42725;BME280;28369;44.046;23.014;2023-04-24T01:18:20;100828.09;;;21.16;46.43
42725;BME280;28369;44.046;23.014;2023-04-24T01:20:48;100786.78;;;20.91;46.70
42725;BME280;28369;44.046;23.014;2023-04-24T01:23:16;100714.44;;;20.42;46.94
42725;BME280;28369;44.046;23.014;2023-04-24T01:25:42;100800.53;;;21.16;46.15
42725;BME280;28369;44.046;23.014;2023-04-24T01:28:08;100801.41;;;21.23;45.52
42725;BME280;28369;44.046;23.014;2023-04-24T01:30:33;100805.28;;;21.20;46.34
42725;BME280;28369;44.046;23.014;2023-04-24T01:32:59;100700.06;;;20.43;46.45
42725;BME280;28369;44.046;23.014;2023-04-24T01:35:25;100827.00;;;20.46;48.50
42725;BME280;28369;44.046;23.014;2023-04-24T01:37:50;100815.53;;;20.30;48.73
42725;BME280;28369;44.046;23.014;2023-04-24T01:40:16;100734.09;;;19.31;50.12
42725;BME280;28369;44.046;23.014;2023-04-24T01:42:41;100784.81;;;19.98;49.99
42725;BME280;28369;44.046;23.014;2023-04-24T01:45:10;100758.53;;;19.05;51.91
42725;BME280;28369;44.046;23.014;2023-04-24T01:47:36;100734.16;;;18.93;52.07
42725;BME280;28369;44.046;23.014;2023-04-24T01:50:02;100793.91;;;19.59;51.62
42725;BME280;28369;44.046;23.014;2023-04-24T01:52:28;100712.84;;;19.38;50.60
42725;BME280;28369;44.046;23.014;2023-04-24T01:54:56;100825.75;;;20.05;50.50
42725;BME280;28369;44.046;23.014;2023-04-24T01:57:24;100717.09;;;19.32;50.81
42725;BME280;28369;44.046;23.014;2023-04-24T01:59:51;100829.84;;;20.23;50.11
42725;BME280;28369;44.046;23.014;2023-04-24T02:02:17;100758.88;;;19.92;49.71
42725;BME280;28369;44.046;23.014;2023-04-24T02:04:42;100793.81;;;19.97;49.81
42725;BME280;28369;44.046;23.014;2023-04-24T02:07:08;100687.03;;;18.56;51.41
42725;BME280;28369;44.046;23.014;2023-04-24T02:09:33;100821.50;;;19.96;50.87
42725;BME280;28369;44.046;23.014;2023-04-24T02:11:59;100668.03;;;18.97;50.72
42725;BME280;28369;44.046;23.014;2023-04-24T02:14:25;100820.69;;;19.65;51.42
42725;BME280;28369;44.046;23.014;2023-04-24T02:16:51;100779.22;;;19.63;51.25
42725;BME280;28369;44.046;23.014;2023-04-24T02:19:16;100848.72;;;20.21;50.43
42725;BME280;28369;44.046;23.014;2023-04-24T02:21:42;100735.63;;;19.56;50.31
42725;BME280;28369;44.046;23.014;2023-04-24T02:24:07;100675.16;;;19.41;49.69
42725;BME280;28369;44.046;23.014;2023-04-24T02:26:33;100835.63;;;20.26;50.32
42725;BME280;28369;44.046;23.014;2023-04-24T02:28:59;100703.91;;;19.61;49.73
42725;BME280;28369;44.046;23.014;2023-04-24T02:31:25;100820.19;;;20.43;49.49
42725;BME280;28369;44.046;23.014;2023-04-24T02:33:50;100801.19;;;20.31;49.37
42725;BME280;28369;44.046;23.014;2023-04-24T02:36:16;100808.50;;;20.23;49.45
42725;BME280;28369;44.046;23.014;2023-04-24T02:38:41;100737.81;;;19.82;50.13
42725;BME280;28369;44.046;23.014;2023-04-24T02:41:07;100719.03;;;19.90;49.30
42725;BME280;28369;44.046;23.014;2023-04-24T02:43:32;100794.25;;;20.74;49.22
42725;BME280;28369;44.046;23.014;2023-04-24T02:46:00;100781.50;;;20.76;48.65
42725;BME280;28369;44.046;23.014;2023-04-24T02:48:25;100754.41;;;20.14;49.41
42725;BME280;28369;44.046;23.014;2023-04-24T02:50:51;100693.97;;;20.06;48.58
42725;BME280;28369;44.046;23.014;2023-04-24T02:53:16;100594.28;;;19.71;48.09
42725;BME280;28369;44.046;23.014;2023-04-24T02:55:42;100787.16;;;20.87;47.85
42725;BME280;28369;44.046;23.014;2023-04-24T02:58:08;100699.44;;;20.41;48.13
42725;BME280;28369;44.046;23.014;2023-04-24T03:00:33;100713.16;;;20.38;48.00
42725;BME280;28369;44.046;23.014;2023-04-24T03:02:59;100790.56;;;21.03;47.52
42725;BME280;28369;44.046;23.014;2023-04-24T03:05:25;100684.38;;;19.75;48.74
42725;BME280;28369;44.046;23.014;2023-04-24T03:07:50;100796.47;;;20.70;48.75
42725;BME280;28369;44.046;23.014;2023-04-24T03:10:18;100723.03;;;20.66;48.83
42725;BME280;28369;44.046;23.014;2023-04-24T03:12:43;100682.03;;;20.24;49.43
42725;BME280;28369;44.046;23.014;2023-04-24T03:15:09;100569.69;;;19.75;48.76
42725;BME280;28369;44.046;23.014;2023-04-24T03:17:35;100563.28;;;19.69;48.93
42725;BME280;28369;44.046;23.014;2023-04-24T03:20:01;100724.44;;;20.83;48.94
42725;BME280;28369;44.046;23.014;2023-04-24T03:22:26;100750.38;;;20.89;49.00
42725;BME280;28369;44.046;23.014;2023-04-24T03:24:52;100752.13;;;21.04;48.61
42725;BME280;28369;44.046;23.014;2023-04-24T03:27:17;100709.78;;;20.73;48.51
42725;BME280;28369;44.046;23.014;2023-04-24T03:29:43;100718.53;;;20.88;48.53
42725;BME280;28369;44.046;23.014;2023-04-24T03:32:08;100738.69;;;20.91;48.05
42725;BME280;28369;44.046;23.014;2023-04-24T03:34:34;100727.28;;;19.44;51.84
42725;BME280;28369;44.046;23.014;2023-04-24T03:37:00;100791.06;;;20.05;51.07
42725;BME280;28369;44.046;23.014;2023-04-24T03:39:25;100778.44;;;20.14;51.01
42725;BME280;28369;44.046;23.014;2023-04-24T03:41:51;100798.09;;;20.49;50.59
42725;BME280;28369;44.046;23.014;2023-04-24T03:44:16;100702.22;;;19.90;50.40
42725;BME280;28369;44.046;23.014;2023-04-24T03:46:42;100604.25;;;18.12;53.60
42725;BME280;28369;44.046;23.014;2023-04-24T03:49:07;100707.16;;;18.73;54.73
42725;BME280;28369;44.046;23.014;2023-04-24T03:51:33;100776.75;;;19.46;53.60
42725;BME280;28369;44.046;23.014;2023-04-24T03:53:58;100731.31;;;19.55;52.95
42725;BME280;28369;44.046;23.014;2023-04-24T03:56:24;100731.25;;;19.99;51.63
42725;BME280;28369;44.046;23.014;2023-04-24T03:58:49;100819.25;;;20.29;50.94
42725;BME280;28369;44.046;23.014;2023-04-24T04:01:15;100737.00;;;20.18;49.75
42725;BME280;28369;44.046;23.014;2023-04-24T04:03:41;100832.84;;;20.34;50.30
42725;BME280;28369;44.046;23.014;2023-04-24T04:06:06;100764.38;;;19.90;50.60
42725;BME280;28369;44.046;23.014;2023-04-24T04:08:32;100657.41;;;19.48;50.19
42725;BME280;28369;44.046;23.014;2023-04-24T04:10:57;100766.69;;;20.30;49.70
42725;BME280;28369;44.046;23.014;2023-04-24T04:13:23;100825.69;;;20.57;50.71
42725;BME280;28369;44.046;23.014;2023-04-24T04:15:48;100808.69;;;21.08;49.54
42725;BME280;28369;44.046;23.014;2023-04-24T04:18:14;100671.50;;;21.35;47.06
42725;BME280;28369;44.046;23.014;2023-04-24T04:20:40;100801.59;;;21.91;47.62
42725;BME280;28369;44.046;23.014;2023-04-24T04:23:05;100790.19;;;22.31;46.25
42725;BME280;28369;44.046;23.014;2023-04-24T04:25:31;100832.94;;;22.93;44.88
42725;BME280;28369;44.046;23.014;2023-04-24T04:27:56;100736.03;;;22.76;44.30
42725;BME280;28369;44.046;23.014;2023-04-24T04:30:23;100609.13;;;22.03;44.35
42725;BME280;28369;44.046;23.014;2023-04-24T04:32:48;100729.25;;;21.65;46.14
42725;BME280;28369;44.046;23.014;2023-04-24T04:35:14;100806.59;;;22.08;46.38
42725;BME280;28369;44.046;23.014;2023-04-24T04:37:39;100759.50;;;21.65;45.83
42725;BME280;28369;44.046;23.014;2023-04-24T04:40:06;100795.84;;;21.95;46.09
42725;BME280;28369;44.046;23.014;2023-04-24T04:42:32;100825.66;;;22.40;45.20
42725;BME280;28369;44.046;23.014;2023-04-24T04:45:01;100694.91;;;21.68;44.87
42725;BME280;28369;44.046;23.014;2023-04-24T04:47:27;100806.22;;;22.18;45.30
42725;BME280;28369;44.046;23.014;2023-04-24T04:49:54;100821.28;;;21.77;45.54
42725;BME280;28369;44.046;23.014;2023-04-24T04:52:20;100820.34;;;21.00;47.56
42725;BME280;28369;44.046;23.014;2023-04-24T04:54:45;100776.53;;;21.22;46.90
42725;BME280;28369;44.046;23.014;2023-04-24T04:57:11;100764.00;;;21.58;46.38
42725;BME280;28369;44.046;23.014;2023-04-24T04:59:37;100767.50;;;20.95;47.40
42725;BME280;28369;44.046;23.014;2023-04-24T05:02:03;100817.41;;;20.95;48.31
42725;BME280;28369;44.046;23.014;2023-04-24T05:04:29;100789.09;;;20.14;48.37
42725;BME280;28369;44.046;23.014;2023-04-24T05:06:55;100667.97;;;19.42;48.32
42725;BME280;28369;44.046;23.014;2023-04-24T05:09:21;100710.22;;;20.33;47.35
42725;BME280;28369;44.046;23.014;2023-04-24T05:11:46;100784.84;;;20.19;48.84
42725;BME280;28369;44.046;23.014;2023-04-24T05:14:12;100775.59;;;20.80;48.00
42725;BME280;28369;44.046;23.014;2023-04-24T05:16:38;100656.88;;;20.11;47.86
42725;BME280;28369;44.046;23.014;2023-04-24T05:19:04;100762.75;;;20.69;48.05
42725;BME280;28369;44.046;23.014;2023-04-24T05:21:30;100824.31;;;21.39;47.53
42725;BME280;28369;44.046;23.014;2023-04-24T05:23:56;100831.00;;;21.21;46.97
42725;BME280;28369;44.046;23.014;2023-04-24T05:26:21;100800.03;;;21.34;46.69
42725;BME280;28369;44.046;23.014;2023-04-24T05:28:48;100849.50;;;21.80;46.44
42725;BME280;28369;44.046;23.014;2023-04-24T05:31:13;100826.28;;;21.87;46.21
42725;BME280;28369;44.046;23.014;2023-04-24T05:33:39;100802.44;;;21.99;46.24
42725;BME280;28369;44.046;23.014;2023-04-24T05:36:06;100838.47;;;22.65;45.12
42725;BME280;28369;44.046;23.014;2023-04-24T05:38:31;100606.72;;;21.40;44.76
42725;BME280;28369;44.046;23.014;2023-04-24T05:40:57;100844.28;;;23.02;44.49
42725;BME280;28369;44.046;23.014;2023-04-24T05:43:22;100826.97;;;23.04;44.69
42725;BME280;28369;44.046;23.014;2023-04-24T05:45:48;100816.63;;;22.41;45.59
42725;BME280;28369;44.046;23.014;2023-04-24T05:48:13;100820.16;;;22.82;44.85
42725;BME280;28369;44.046;23.014;2023-04-24T05:50:38;100710.28;;;22.35;44.82
42725;BME280;28369;44.046;23.014;2023-04-24T05:53:05;100833.97;;;22.78;43.99
42725;BME280;28369;44.046;23.014;2023-04-24T05:55:32;100850.47;;;23.09;42.85
42725;BME280;28369;44.046;23.014;2023-04-24T05:57:58;100766.16;;;22.71;42.54
42725;BME280;28369;44.046;23.014;2023-04-24T06:00:24;100842.59;;;23.61;42.25
42725;BME280;28369;44.046;23.014;2023-04-24T06:02:50;100785.50;;;22.53;40.94
42725;BME280;28369;44.046;23.014;2023-04-24T06:05:15;100788.41;;;22.78;41.79
42725;BME280;28369;44.046;23.014;2023-04-24T06:07:41;100721.00;;;22.88;40.96
42725;BME280;28369;44.046;23.014;2023-04-24T06:10:07;100781.81;;;22.74;42.36
42725;BME280;28369;44.046;23.014;2023-04-24T06:12:32;100845.50;;;23.46;42.24
42725;BME280;28369;44.046;23.014;2023-04-24T06:14:58;100824.41;;;23.76;41.02
42725;BME280;28369;44.046;23.014;2023-04-24T06:17:23;100813.78;;;23.95;40.21
42725;BME280;28369;44.046;23.014;2023-04-24T06:19:49;100746.09;;;23.41;39.57
42725;BME280;28369;44.046;23.014;2023-04-24T06:22:14;100729.50;;;23.57;40.61
42725;BME280;28369;44.046;23.014;2023-04-24T06:24:40;100750.44;;;23.87;38.82
42725;BME280;28369;44.046;23.014;2023-04-24T06:27:06;100750.63;;;23.86;38.46
42725;BME280;28369;44.046;23.014;2023-04-24T06:29:34;100779.63;;;24.15;39.24
42725;BME280;28369;44.046;23.014;2023-04-24T06:31:59;100797.84;;;24.45;37.81
42725;BME280;28369;44.046;23.014;2023-04-24T06:34:25;100826.97;;;24.48;37.83
42725;BME280;28369;44.046;23.014;2023-04-24T06:36:50;100669.69;;;23.50;37.87
42725;BME280;28369;44.046;23.014;2023-04-24T06:39:16;100713.84;;;24.00;37.54
42725;BME280;28369;44.046;23.014;2023-04-24T06:41:42;100777.47;;;24.63;38.08
42725;BME280;28369;44.046;23.014;2023-04-24T06:44:08;100816.25;;;24.99;37.31
42725;BME280;28369;44.046;23.014;2023-04-24T06:46:33;100743.78;;;24.60;37.46
42725;BME280;28369;44.046;23.014;2023-04-24T06:49:01;100798.69;;;24.96;36.97
42725;BME280;28369;44.046;23.014;2023-04-24T06:51:27;100524.25;;;23.03;36.93
42725;BME280;28369;44.046;23.014;2023-04-24T06:53:53;100484.47;;;23.00;36.65
42725;BME280;28369;44.046;23.014;2023-04-24T06:56:19;100562.75;;;23.86;37.26
42725;BME280;28369;44.046;23.014;2023-04-24T06:58:45;100421.34;;;23.04;37.62
42725;BME280;28369;44.046;23.014;2023-04-24T07:01:11;100313.97;;;22.35;37.39
42725;BME280;28369;44.046;23.014;2023-04-24T07:03:38;100570.53;;;24.19;36.44
42725;BME280;28369;44.046;23.014;2023-04-24T07:06:04;100574.50;;;23.85;36.55
42725;BME280;28369;44.046;23.014;2023-04-24T07:08:30;100585.75;;;24.07;35.87
42725;BME280;28369;44.046;23.014;2023-04-24T07:10:56;100731.34;;;24.66;37.81
42725;BME280;28369;44.046;23.014;2023-04-24T07:13:22;100289.69;;;21.84;35.83
42725;BME280;28369;44.046;23.014;2023-04-24T07:15:48;100572.31;;;24.07;37.54
42725;BME280;28369;44.046;23.014;2023-04-24T07:18:16;100681.34;;;24.65;37.84
42725;BME280;28369;44.046;23.014;2023-04-24T07:20:42;100594.16;;;24.79;37.59
42725;BME280;28369;44.046;23.014;2023-04-24T07:23:07;100673.22;;;25.27;35.86
42725;BME280;28369;44.046;23.014;2023-04-24T07:25:33;100736.22;;;26.06;36.21
42725;BME280;28369;44.046;23.014;2023-04-24T07:27:59;100615.06;;;25.45;36.15
42725;BME280;28369;44.046;23.014;2023-04-24T07:30:24;100627.69;;;25.75;36.18
42725;BME280;28369;44.046;23.014;2023-04-24T07:32:50;100758.50;;;26.67;34.86
42725;BME280;28369;44.046;23.014;2023-04-24T07:35:16;100616.59;;;25.83;34.47
42725;BME280;28369;44.046;23.014;2023-04-24T07:37:41;100788.34;;;26.84;35.62
42725;BME280;28369;44.046;23.014;2023-04-24T07:40:13;100501.25;;;25.14;34.49
42725;BME280;28369;44.046;23.014;2023-04-24T07:42:39;100771.66;;;26.99;35.47
42725;BME280;28369;44.046;23.014;2023-04-24T07:45:05;100746.88;;;26.54;36.08
42725;BME280;28369;44.046;23.014;2023-04-24T07:47:31;100560.81;;;25.48;35.82
42725;BME280;28369;44.046;23.014;2023-04-24T07:49:57;100761.56;;;26.70;34.75
42725;BME280;28369;44.046;23.014;2023-04-24T07:52:24;100771.78;;;26.80;34.89
42725;BME280;28369;44.046;23.014;2023-04-24T07:54:49;100759.84;;;26.88;35.03
42725;BME280;28369;44.046;23.014;2023-04-24T07:57:16;100613.56;;;25.79;35.00
42725;BME280;28369;44.046;23.014;2023-04-24T07:59:41;100761.72;;;26.33;34.83
42725;BME280;28369;44.046;23.014;2023-04-24T08:02:07;100800.44;;;26.20;34.84
42725;BME280;28369;44.046;23.014;2023-04-24T08:04:33;100816.69;;;26.32;34.78
42725;BME280;28369;44.046;23.014;2023-04-24T08:06:58;100847.84;;;25.73;35.73
42725;BME280;28369;44.046;23.014;2023-04-24T08:09:24;100708.50;;;25.56;34.61
42725;BME280;28369;44.046;23.014;2023-04-24T08:11:49;100839.22;;;27.04;34.34
42725;BME280;28369;44.046;23.014;2023-04-24T08:14:15;100788.00;;;26.38;34.83
42725;BME280;28369;44.046;23.014;2023-04-24T08:16:41;100793.06;;;26.58;35.70
42725;BME280;28369;44.046;23.014;2023-04-24T08:19:06;100772.19;;;25.00;38.63
42725;BME280;28369;44.046;23.014;2023-04-24T08:21:32;100725.41;;;24.57;37.58
42725;BME280;28369;44.046;23.014;2023-04-24T08:23:57;100806.69;;;26.21;35.54
42725;BME280;28369;44.046;23.014;2023-04-24T08:26:23;100792.00;;;26.59;34.95
42725;BME280;28369;44.046;23.014;2023-04-24T08:28:49;100698.78;;;24.99;36.44
42725;BME280;28369;44.046;23.014;2023-04-24T08:31:14;100766.94;;;25.49;38.13
42725;BME280;28369;44.046;23.014;2023-04-24T08:33:40;100611.25;;;24.16;36.84
42725;BME280;28369;44.046;23.014;2023-04-24T08:36:06;100795.69;;;25.55;34.88
42725;BME280;28369;44.046;23.014;2023-04-24T08:38:33;100800.00;;;26.24;35.68
42725;BME280;28369;44.046;23.014;2023-04-24T08:41:00;100632.81;;;25.15;35.28
42725;BME280;28369;44.046;23.014;2023-04-24T08:43:26;100787.28;;;26.43;34.77
42725;BME280;28369;44.046;23.014;2023-04-24T08:45:55;100819.75;;;26.90;33.62
42725;BME280;28369;44.046;23.014;2023-04-24T08:48:22;100713.91;;;26.41;35.96
42725;BME280;28369;44.046;23.014;2023-04-24T08:50:51;100795.13;;;26.98;33.99
42725;BME280;28369;44.046;23.014;2023-04-24T08:53:18;100805.38;;;26.24;35.76
42725;BME280;28369;44.046;23.014;2023-04-24T08:55:47;100847.28;;;26.80;35.64
42725;BME280;28369;44.046;23.014;2023-04-24T08:58:13;100817.88;;;27.38;33.81
42725;BME280;28369;44.046;23.014;2023-04-24T09:00:39;100529.91;;;24.34;35.47
42725;BME280;28369;44.046;23.014;2023-04-24T09:03:05;100739.50;;;25.59;35.53
42725;BME280;28369;44.046;23.014;2023-04-24T09:05:32;100686.19;;;24.75;36.66
42725;BME280;28369;44.046;23.014;2023-04-24T09:07:59;100780.78;;;25.52;36.69
42725;BME280;28369;44.046;23.014;2023-04-24T09:10:25;100704.94;;;25.44;36.59
42725;BME280;28369;44.046;23.014;2023-04-24T09:12:51;100824.91;;;25.51;37.53
42725;BME280;28369;44.046;23.014;2023-04-24T09:15:19;100649.25;;;24.89;37.10
42725;BME280;28369;44.046;23.014;2023-04-24T09:17:46;100766.41;;;25.22;38.37
42725;BME280;28369;44.046;23.014;2023-04-24T09:20:11;100799.53;;;24.72;38.88
42725;BME280;28369;44.046;23.014;2023-04-24T09:22:37;100799.13;;;24.93;38.80
42725;BME280;28369;44.046;23.014;2023-04-24T09:28:15;100810.47;;;24.77;39.19
42725;BME280;28369;44.046;23.014;2023-04-24T09:30:41;100747.19;;;23.72;39.63
42725;BME280;28369;44.046;23.014;2023-04-24T09:33:14;100676.63;;;22.99;41.00
42725;BME280;28369;44.046;23.014;2023-04-24T09:35:50;100801.34;;;23.49;43.02
42725;BME280;28369;44.046;23.014;2023-04-24T09:38:17;100787.91;;;23.55;42.74
42725;BME280;28369;44.046;23.014;2023-04-24T09:40:43;100809.66;;;23.27;44.80
42725;BME280;28369;44.046;23.014;2023-04-24T09:43:11;100823.25;;;23.05;44.54
42725;BME280;28369;44.046;23.014;2023-04-24T09:45:39;100790.25;;;22.65;46.64
42725;BME280;28369;44.046;23.014;2023-04-24T09:48:05;100771.09;;;23.21;45.93
42725;BME280;28369;44.046;23.014;2023-04-24T09:50:34;100757.63;;;23.35;46.18
42725;BME280;28369;44.046;23.014;2023-04-24T09:53:03;100716.88;;;22.79;47.20
42725;BME280;28369;44.046;23.014;2023-04-24T09:55:29;100499.34;;;21.43;44.68
42725;BME280;28369;44.046;23.014;2023-04-24T09:58:00;100793.38;;;22.88;46.88
42725;BME280;28369;44.046;23.014;2023-04-24T10:00:31;100669.50;;;22.59;46.73
42725;BME280;28369;44.046;23.014;2023-04-24T10:02:57;100825.75;;;24.06;45.37
42725;BME280;28369;44.046;23.014;2023-04-24T10:05:24;100628.47;;;23.38;43.96
42725;BME280;28369;44.046;23.014;2023-04-24T10:07:51;100755.00;;;24.50;43.29
42725;BME280;28369;44.046;23.014;2023-04-24T10:10:19;100799.13;;;24.93;42.72
42725;BME280;28369;44.046;23.014;2023-04-24T10:16:03;100763.81;;;24.32;44.09
42725;BME280;28369;44.046;23.014;2023-04-24T10:18:39;100762.22;;;24.82;42.86
42725;BME280;28369;44.046;23.014;2023-04-24T10:21:20;100757.19;;;24.35;43.41
42725;BME280;28369;44.046;23.014;2023-04-24T10:23:48;100689.28;;;23.96;44.23
42725;BME280;28369;44.046;23.014;2023-04-24T10:26:14;100741.59;;;24.76;42.30
42725;BME280;28369;44.046;23.014;2023-04-24T10:28:48;100738.31;;;24.42;43.31
42725;BME280;28369;44.046;23.014;2023-04-24T10:31:14;100761.22;;;25.01;44.10
42725;BME280;28369;44.046;23.014;2023-04-24T10:33:45;100688.22;;;24.04;44.65
42725;BME280;28369;44.046;23.014;2023-04-24T10:36:22;100768.53;;;24.69;44.36
42725;BME280;28369;44.046;23.014;2023-04-24T10:38:49;100711.09;;;25.07;43.59
42725;BME280;28369;44.046;23.014;2023-04-24T10:41:17;100721.13;;;25.56;43.77
42725;BME280;28369;44.046;23.014;2023-04-24T10:49:07;100638.69;;;25.43;41.15
42725;BME280;28369;44.046;23.014;2023-04-24T10:52:02;100732.69;;;26.47;41.46
42725;BME280;28369;44.046;23.014;2023-04-24T10:54:40;100729.81;;;26.84;40.13
42725;BME280;28369;44.046;23.014;2023-04-24T10:59:45;100549.00;;;26.27;38.60
42725;BME280;28369;44.046;23.014;2023-04-24T11:02:14;100716.56;;;27.59;37.63
42725;BME280;28369;44.046;23.014;2023-04-24T11:04:40;100719.38;;;27.64;37.91
42725;BME280;28369;44.046;23.014;2023-04-24T11:07:06;100703.66;;;26.85;38.73
42725;BME280;28369;44.046;23.014;2023-04-24T11:09:32;100668.91;;;25.75;40.56
42725;BME280;28369;44.046;23.014;2023-04-24T11:12:11;100721.59;;;26.79;40.00
42725;BME280;28369;44.046;23.014;2023-04-24T11:20:10;100660.28;;;26.98;40.32
42725;BME280;28369;44.046;23.014;2023-04-24T11:22:38;100688.78;;;26.70;42.52
42725;BME280;28369;44.046;23.014;2023-04-24T11:25:06;100561.66;;;24.99;41.50
42725;BME280;28369;44.046;23.014;2023-04-24T11:27:38;100628.72;;;26.04;43.12
42725;BME280;28369;44.046;23.014;2023-04-24T11:30:06;100643.53;;;25.83;42.52
42725;BME280;28369;44.046;23.014;2023-04-24T11:35:03;100652.91;;;26.82;40.52
42725;BME280;28369;44.046;23.014;2023-04-24T11:37:36;100704.75;;;27.36;39.25
42725;BME280;28369;44.046;23.014;2023-04-24T11:40:04;100601.69;;;26.34;40.13
42725;BME280;28369;44.046;23.014;2023-04-24T11:42:40;100666.84;;;27.43;40.21
42725;BME280;28369;44.046;23.014;2023-04-24T11:45:34;100703.53;;;27.56;39.03
42725;BME280;28369;44.046;23.014;2023-04-24T11:47:59;100640.13;;;26.77;40.80
42725;BME280;28369;44.046;23.014;2023-04-24T11:50:26;100649.91;;;27.59;38.86
42725;BME280;28369;44.046;23.014;2023-04-24T11:52:53;100688.78;;;27.47;39.56
42725;BME280;28369;44.046;23.014;2023-04-24T11:57:46;100689.75;;;28.32;37.59
42725;BME280;28369;44.046;23.014;2023-04-24T12:00:23;100663.22;;;28.63;36.12
42725;BME280;28369;44.046;23.014;2023-04-24T12:02:49;100660.69;;;28.95;35.20
42725;BME280;28369;44.046;23.014;2023-04-24T12:05:23;100669.56;;;28.91;35.60
42725;BME280;28369;44.046;23.014;2023-04-24T12:07:49;100656.91;;;29.19;35.41
42725;BME280;28369;44.046;23.014;2023-04-24T12:10:22;100645.75;;;27.40;38.06
42725;BME280;28369;44.046;23.014;2023-04-24T12:12:49;100666.88;;;28.91;34.57
42725;BME280;28369;44.046;23.014;2023-04-24T12:15:17;100639.94;;;28.45;35.30
42725;BME280;28369;44.046;23.014;2023-04-24T12:17:44;100516.75;;;28.10;34.25
42725;BME280;28369;44.046;23.014;2023-04-24T12:20:10;100662.75;;;29.10;33.29
42725;BME280;28369;44.046;23.014;2023-04-24T12:22:54;100621.97;;;28.95;33.13
42725;BME280;28369;44.046;23.014;2023-04-24T12:25:22;100602.59;;;29.03;33.41
42725;BME280;28369;44.046;23.014;2023-04-24T12:27:54;100593.59;;;29.20;33.28
42725;BME280;28369;44.046;23.014;2023-04-24T12:30:21;100628.03;;;29.24;33.44
42725;BME280;28369;44.046;23.014;2023-04-24T12:32:48;100560.72;;;29.33;32.06
42725;BME280;28369;44.046;23.014;2023-04-24T12:35:19;100535.63;;;28.88;32.17
42725;BME280;28369;44.046;23.014;2023-04-24T12:37:45;100540.81;;;29.22;33.48
42725;BME280;28369;44.046;23.014;2023-04-24T12:40:11;100431.88;;;27.50;33.32
42725;BME280;28369;44.046;23.014;2023-04-24T12:42:45;100596.13;;;28.82;32.56
42725;BME280;28369;44.046;23.014;2023-04-24T12:45:11;100497.44;;;28.85;33.05
42725;BME280;28369;44.046;23.014;2023-04-24T12:47:38;100563.09;;;29.02;32.75
42725;BME280;28369;44.046;23.014;2023-04-24T12:50:04;100548.94;;;29.22;32.26
42725;BME280;28369;44.046;23.014;2023-04-24T12:52:31;100428.59;;;28.26;31.60
42725;BME280;28369;44.046;23.014;2023-04-24T12:54:59;100557.84;;;29.18;33.25
42725;BME280;28369;44.046;23.014;2023-04-24T12:57:29;100547.91;;;29.23;32.62
42725;BME280;28369;44.046;23.014;2023-04-24T12:59:58;100571.94;;;29.20;31.75
42725;BME280;28369;44.046;23.014;2023-04-24T13:02:25;100572.00;;;28.19;32.48